createdAt,value
2023-02-28T00:00:23.952Z,6.00
2023-02-28T00:02:55.527Z,5.40
2023-02-28T00:05:29.169Z,3.87
2023-02-28T00:08:00.642Z,5.32
2023-02-28T00:10:32.814Z,4.20
2023-02-28T00:13:07.016Z,4.20
2023-02-28T00:15:38.506Z,5.10
2023-02-28T00:18:09.961Z,5.57
2023-02-28T00:20:41.393Z,4.53
2023-02-28T00:23:12.840Z,5.40
2023-02-28T00:25:44.264Z,4.22
2023-02-28T00:28:15.764Z,5.20
2023-02-28T00:30:47.365Z,3.97
2023-02-28T00:33:18.883Z,4.25
2023-02-28T00:35:50.305Z,5.22
2023-02-28T00:38:21.769Z,5.47
2023-02-28T00:40:53.235Z,6.32
2023-02-28T00:43:24.712Z,4.15
2023-02-28T00:45:56.228Z,4.38
2023-02-28T00:48:27.739Z,5.27
2023-02-28T00:50:59.258Z,5.20
2023-02-28T00:53:30.944Z,4.35
2023-02-28T00:56:02.703Z,5.00
2023-02-28T00:58:34.186Z,3.40
2023-02-28T01:01:05.893Z,3.33
2023-02-28T01:03:37.374Z,3.80
2023-02-28T01:06:08.802Z,5.20
2023-02-28T01:08:40.237Z,4.38
2023-02-28T01:11:13.555Z,6.45
2023-02-28T01:13:45.819Z,5.93
2023-02-28T01:16:17.844Z,5.45
2023-02-28T01:18:49.297Z,4.95
2023-02-28T01:21:22.462Z,6.23
2023-02-28T01:23:57.700Z,4.97
2023-02-28T01:26:29.113Z,6.68
2023-02-28T01:29:00.499Z,5.60
2023-02-28T01:31:32.198Z,3.40
2023-02-28T01:34:04.639Z,5.30
2023-02-28T01:36:36.100Z,6.00
2023-02-28T01:39:07.521Z,4.80
2023-02-28T01:41:39.400Z,6.55
2023-02-28T01:44:48.417Z,5.13
2023-02-28T01:47:20.441Z,6.38
2023-02-28T01:49:53.129Z,3.37
2023-02-28T01:52:24.736Z,7.20
2023-02-28T01:55:00.396Z,4.57
2023-02-28T01:57:37.524Z,6.65
2023-02-28T02:00:16.881Z,4.60
2023-02-28T02:02:51.663Z,4.18
2023-02-28T02:05:26.336Z,8.75
2023-02-28T02:08:03.126Z,5.93
2023-02-28T02:10:40.532Z,5.65
2023-02-28T02:13:17.931Z,6.45
2023-02-28T02:16:14.527Z,3.85
2023-02-28T02:18:52.565Z,3.83
2023-02-28T02:21:58.164Z,6.93
2023-02-28T02:25:06.324Z,6.35
2023-02-28T02:27:53.173Z,3.80
2023-02-28T02:30:44.549Z,5.50
2023-02-28T02:33:30.229Z,5.90
2023-02-28T02:36:05.607Z,3.88
2023-02-28T02:38:48.494Z,5.55
2023-02-28T02:41:36.201Z,5.57
2023-02-28T02:45:15.557Z,5.65
2023-02-28T02:47:47.884Z,6.03
2023-02-28T02:50:32.347Z,4.90
2023-02-28T02:53:07.111Z,4.57
2023-02-28T02:55:44.526Z,5.65
2023-02-28T02:58:19.893Z,7.28
2023-02-28T03:00:55.651Z,6.32
2023-02-28T03:03:29.418Z,6.68
2023-02-28T03:06:02.552Z,6.00
2023-02-28T03:08:38.897Z,6.43
2023-02-28T03:11:15.146Z,6.35
2023-02-28T03:14:20.710Z,6.85
2023-02-28T03:17:20.173Z,5.00
2023-02-28T03:20:19.732Z,6.88
2023-02-28T03:23:24.605Z,5.97
2023-02-28T03:26:28.520Z,4.67
2023-02-28T03:29:09.216Z,5.20
2023-02-28T03:31:56.588Z,5.88
2023-02-28T03:34:35.101Z,7.05
2023-02-28T03:37:19.719Z,5.88
2023-02-28T03:40:26.436Z,5.85
2023-02-28T03:43:04.531Z,6.18
2023-02-28T03:45:39.086Z,6.05
2023-02-28T03:48:38.438Z,6.03
2023-02-28T03:51:15.283Z,7.35
2023-02-28T03:53:53.421Z,6.50
2023-02-28T03:56:34.707Z,7.18
2023-02-28T03:59:16.107Z,6.53
2023-02-28T04:01:50.010Z,4.50
2023-02-28T04:04:22.339Z,4.65
2023-02-28T04:07:01.481Z,5.37
2023-02-28T04:09:33.372Z,7.95
2023-02-28T04:12:05.041Z,6.03
2023-02-28T04:14:36.502Z,5.40
2023-02-28T04:17:07.972Z,7.93
2023-02-28T04:19:39.440Z,5.47
2023-02-28T04:22:10.961Z,5.53
2023-02-28T04:24:42.406Z,8.05
2023-02-28T04:27:13.818Z,5.93
2023-02-28T04:29:45.248Z,7.63
2023-02-28T04:32:16.796Z,5.88
2023-02-28T04:34:48.365Z,6.65
2023-02-28T04:37:19.858Z,5.72
2023-02-28T04:39:51.434Z,9.77
2023-02-28T04:42:22.888Z,6.47
2023-02-28T04:44:54.378Z,6.65
2023-02-28T04:47:25.829Z,6.22
2023-02-28T04:49:57.305Z,7.65
2023-02-28T04:52:28.936Z,6.47
2023-02-28T04:55:00.380Z,5.77
2023-02-28T04:57:31.837Z,6.32
2023-02-28T05:00:03.750Z,7.87
2023-02-28T05:02:36.096Z,5.30
2023-02-28T05:05:07.738Z,7.35
2023-02-28T05:07:39.246Z,6.55
2023-02-28T05:10:11.712Z,6.47
2023-02-28T05:12:43.098Z,6.65
2023-02-28T05:15:16.014Z,6.22
2023-02-28T05:17:47.445Z,6.80
2023-02-28T05:20:19.010Z,7.13
2023-02-28T05:22:50.764Z,4.78
2023-02-28T05:25:22.755Z,5.72
2023-02-28T05:27:54.215Z,6.75
2023-02-28T05:30:25.731Z,6.18
2023-02-28T05:32:57.220Z,7.80
2023-02-28T05:35:28.721Z,6.97
2023-02-28T05:38:00.179Z,5.90
2023-02-28T05:40:31.691Z,7.05
2023-02-28T05:43:03.086Z,6.32
2023-02-28T05:45:34.558Z,7.97
2023-02-28T05:48:06.337Z,6.60
2023-02-28T05:50:37.856Z,7.50
2023-02-28T05:53:09.300Z,7.32
2023-02-28T05:55:40.749Z,5.82
2023-02-28T05:58:12.156Z,8.52
2023-02-28T06:00:43.585Z,7.53
2023-02-28T06:03:15.100Z,7.28
2023-02-28T06:05:46.652Z,7.97
2023-02-28T06:08:18.154Z,6.47
2023-02-28T06:10:49.626Z,7.93
2023-02-28T06:13:21.095Z,6.90
2023-02-28T06:15:52.546Z,9.20
2023-02-28T06:18:23.959Z,7.47
2023-02-28T06:20:56.409Z,6.43
2023-02-28T06:23:27.842Z,8.68
2023-02-28T06:25:59.383Z,8.77
2023-02-28T06:28:30.996Z,8.45
2023-02-28T06:31:10.957Z,7.50
2023-02-28T06:33:44.233Z,8.17
2023-02-28T06:36:16.867Z,7.05
2023-02-28T06:38:48.348Z,7.50
2023-02-28T06:41:19.806Z,8.25
2023-02-28T06:43:51.407Z,7.32
2023-02-28T06:46:23.136Z,8.40
2023-02-28T06:48:54.651Z,9.07
2023-02-28T06:51:26.077Z,7.72
2023-02-28T06:53:57.551Z,7.90
2023-02-28T06:56:29.098Z,7.68
2023-02-28T06:59:00.539Z,7.10
2023-02-28T07:01:32.594Z,7.97
2023-02-28T07:04:06.316Z,8.10
2023-02-28T07:06:37.827Z,8.65
2023-02-28T07:09:09.292Z,8.33
2023-02-28T07:11:41.790Z,9.85
2023-02-28T07:14:13.243Z,8.90
2023-02-28T07:16:44.748Z,8.60
2023-02-28T07:19:16.165Z,8.27
2023-02-28T07:21:47.629Z,7.53
2023-02-28T07:24:19.038Z,5.80
2023-02-28T07:26:50.526Z,6.37
2023-02-28T07:29:22.239Z,5.95
2023-02-28T07:31:53.771Z,4.65
2023-02-28T07:34:25.252Z,4.43
2023-02-28T07:36:56.743Z,6.70
2023-02-28T07:39:28.169Z,4.85
2023-02-28T07:41:59.664Z,5.40
2023-02-28T07:44:31.100Z,4.65
2023-02-28T07:47:02.567Z,5.13
2023-02-28T07:49:34.065Z,4.50
2023-02-28T07:52:09.342Z,5.45
2023-02-28T07:54:41.852Z,3.53
2023-02-28T07:57:13.251Z,4.50
2023-02-28T07:59:46.236Z,4.82
2023-02-28T08:02:19.808Z,5.17
2023-02-28T08:04:51.469Z,4.07
2023-02-28T08:07:22.912Z,5.00
2023-02-28T08:09:54.625Z,4.47
2023-02-28T08:12:26.508Z,5.57
2023-02-28T08:14:57.990Z,5.07
2023-02-28T08:17:29.800Z,3.85
2023-02-28T08:20:01.286Z,4.88
2023-02-28T08:22:32.774Z,5.03
2023-02-28T08:25:04.555Z,4.03
2023-02-28T08:27:36.923Z,5.82
2023-02-28T08:30:11.256Z,4.67
2023-02-28T08:32:42.781Z,4.45
2023-02-28T08:35:14.463Z,4.10
2023-02-28T08:37:49.125Z,3.90
2023-02-28T08:40:20.593Z,4.28
2023-02-28T08:42:52.056Z,4.47
2023-02-28T08:45:26.664Z,4.07
2023-02-28T08:47:58.212Z,3.88
2023-02-28T08:50:29.638Z,5.22
2023-02-28T08:53:01.129Z,4.90
2023-02-28T08:55:32.577Z,4.00
2023-02-28T08:58:04.031Z,4.20
2023-02-28T09:00:35.566Z,4.25
2023-02-28T09:03:07.010Z,5.45
2023-02-28T09:05:38.502Z,4.10
2023-02-28T09:08:09.966Z,4.60
2023-02-28T09:10:41.412Z,4.13
2023-02-28T09:13:12.812Z,4.55
2023-02-28T09:15:44.325Z,4.45
2023-02-28T09:18:16.189Z,4.68
2023-02-28T09:20:47.691Z,3.90
2023-02-28T09:23:19.587Z,4.10
2023-02-28T09:25:54.504Z,4.28
2023-02-28T09:28:26.114Z,3.83
2023-02-28T09:30:59.345Z,3.72
2023-02-28T09:33:30.848Z,4.30
2023-02-28T09:36:04.159Z,3.88
2023-02-28T09:38:35.841Z,3.53
2023-02-28T09:41:19.484Z,3.33
2023-02-28T09:43:56.521Z,3.65
2023-02-28T09:46:48.311Z,4.07
2023-02-28T09:49:26.374Z,3.80
2023-02-28T09:52:10.983Z,3.30
2023-02-28T09:54:42.593Z,3.60
2023-02-28T09:57:22.370Z,5.03
2023-02-28T10:00:06.129Z,3.97
2023-02-28T10:02:49.777Z,3.47
2023-02-28T10:05:29.747Z,3.45
2023-02-28T10:08:24.508Z,3.65
2023-02-28T10:11:00.472Z,2.60
2023-02-28T10:13:37.950Z,4.17
2023-02-28T10:16:16.725Z,5.50
2023-02-28T10:18:52.448Z,4.03
2023-02-28T10:21:32.708Z,3.80
2023-02-28T10:24:21.468Z,4.45
2023-02-28T10:26:56.975Z,6.18
2023-02-28T10:29:33.431Z,3.80
2023-02-28T10:32:05.195Z,3.85
2023-02-28T10:34:36.659Z,4.00
2023-02-28T10:37:08.160Z,4.25
2023-02-28T10:39:43.904Z,4.00
2023-02-28T10:42:28.598Z,4.20
2023-02-28T10:45:13.616Z,3.45
2023-02-28T10:47:56.134Z,4.73
2023-02-28T10:50:36.857Z,4.80
2023-02-28T10:53:11.066Z,4.18
2023-02-28T10:55:43.198Z,3.05
2023-02-28T10:58:25.691Z,3.45
2023-02-28T11:00:58.259Z,3.10
2023-02-28T11:03:33.243Z,4.20
2023-02-28T11:06:26.672Z,2.47
2023-02-28T11:09:16.295Z,3.88
2023-02-28T11:11:49.661Z,3.67
2023-02-28T11:14:30.960Z,3.28
2023-02-28T11:17:15.517Z,2.90
2023-02-28T11:19:50.994Z,4.22
2023-02-28T11:22:29.151Z,3.88
2023-02-28T11:25:04.089Z,2.72
2023-02-28T11:27:38.194Z,2.95
2023-02-28T11:30:30.822Z,3.45
2023-02-28T11:33:22.441Z,2.25
2023-02-28T11:35:58.079Z,2.93
2023-02-28T11:38:29.852Z,2.20
2023-02-28T11:41:16.530Z,2.10
2023-02-28T11:44:00.097Z,2.10
2023-02-28T11:46:46.894Z,2.58
2023-02-28T11:49:26.343Z,2.58
2023-02-28T11:52:06.866Z,2.30
2023-02-28T11:54:56.708Z,3.05
2023-02-28T11:58:00.308Z,2.80
2023-02-28T12:00:59.236Z,2.03
2023-02-28T12:03:42.990Z,1.88
2023-02-28T12:06:33.649Z,2.35
2023-02-28T12:09:36.375Z,2.80
2023-02-28T12:12:32.591Z,2.15
2023-02-28T12:15:33.611Z,2.42
2023-02-28T12:18:14.540Z,2.28
2023-02-28T12:21:04.813Z,2.30
2023-02-28T12:24:00.569Z,3.77
2023-02-28T12:26:40.893Z,2.05
2023-02-28T12:29:31.628Z,2.63
2023-02-28T12:32:10.780Z,1.80
2023-02-28T12:34:49.128Z,1.93
2023-02-28T12:37:30.703Z,1.80
2023-02-28T12:40:13.012Z,2.20
2023-02-28T12:42:50.414Z,1.87
2023-02-28T12:45:25.372Z,3.08
2023-02-28T12:48:04.995Z,1.52
2023-02-28T12:50:37.432Z,1.50
2023-02-28T12:53:17.749Z,2.38
2023-02-28T12:56:00.956Z,3.25
2023-02-28T12:59:02.211Z,2.28
2023-02-28T13:01:36.318Z,2.88
2023-02-28T13:04:22.816Z,2.43
2023-02-28T13:07:31.140Z,2.03
2023-02-28T13:10:06.599Z,1.65
2023-02-28T13:12:48.920Z,2.43
2023-02-28T13:15:29.098Z,1.50
2023-02-28T13:18:00.769Z,2.10
2023-02-28T13:20:38.117Z,1.60
2023-02-28T13:23:48.232Z,2.72
2023-02-28T13:26:19.696Z,1.67
2023-02-28T13:29:01.809Z,1.95
2023-02-28T13:31:33.303Z,2.50
2023-02-28T13:34:16.004Z,1.80
2023-02-28T13:36:48.238Z,1.80
2023-02-28T13:39:35.989Z,3.05
2023-02-28T13:42:23.136Z,1.85
2023-02-28T13:45:03.537Z,2.35
2023-02-28T13:47:40.641Z,1.95
2023-02-28T13:50:32.556Z,2.70
2023-02-28T13:53:03.935Z,1.70
2023-02-28T13:55:59.064Z,1.70
2023-02-28T13:58:49.116Z,4.13
2023-02-28T14:01:42.886Z,1.63
2023-02-28T14:04:31.898Z,1.73
2023-02-28T14:07:04.522Z,2.22
2023-02-28T14:09:41.422Z,2.08
2023-02-28T14:12:51.032Z,3.15
2023-02-28T14:15:41.500Z,3.23
2023-02-28T14:18:33.050Z,2.00
2023-02-28T14:21:31.821Z,2.33
2023-02-28T14:24:43.155Z,1.65
2023-02-28T14:27:32.621Z,2.10
2023-02-28T14:30:38.114Z,1.90
2023-02-28T14:33:32.583Z,3.95
2023-02-28T14:36:15.567Z,2.67
2023-02-28T14:38:52.383Z,1.67
2023-02-28T14:41:33.307Z,2.30
2023-02-28T14:44:19.842Z,2.03
2023-02-28T14:47:00.209Z,2.10
2023-02-28T14:49:36.362Z,3.00
2023-02-28T14:52:10.852Z,2.40
2023-02-28T14:54:42.674Z,2.10
2023-02-28T14:57:35.856Z,2.07
2023-02-28T15:00:19.342Z,2.00
2023-02-28T15:02:50.872Z,4.10
2023-02-28T15:05:28.297Z,1.57
2023-02-28T15:08:18.436Z,1.90
2023-02-28T15:11:06.217Z,2.97
2023-02-28T15:13:47.090Z,2.10
2023-02-28T15:16:40.194Z,1.70
2023-02-28T15:19:24.453Z,3.33
2023-02-28T15:22:03.833Z,2.63
2023-02-28T15:24:40.388Z,2.42
2023-02-28T15:27:20.135Z,2.55
2023-02-28T15:30:06.039Z,1.55
2023-02-28T15:32:39.685Z,2.20
2023-02-28T15:35:20.269Z,2.05
2023-02-28T15:37:56.394Z,1.98
2023-02-28T15:40:31.736Z,2.90
2023-02-28T15:43:18.044Z,1.88
2023-02-28T15:45:53.754Z,2.65
2023-02-28T15:48:27.992Z,1.70
2023-02-28T15:51:21.324Z,2.40
2023-02-28T15:53:59.779Z,2.58
2023-02-28T15:56:38.100Z,2.10
2023-02-28T15:59:17.756Z,2.13
2023-02-28T16:02:23.125Z,2.20
2023-02-28T16:05:03.469Z,2.28
2023-02-28T16:07:36.865Z,2.97
2023-02-28T16:10:10.326Z,2.35
2023-02-28T16:12:42.652Z,2.13
2023-02-28T16:15:32.171Z,1.70
2023-02-28T16:18:03.762Z,2.10
2023-02-28T16:20:35.270Z,2.03
2023-02-28T16:23:06.675Z,3.22
2023-02-28T16:25:43.004Z,3.05
2023-02-28T16:28:35.946Z,3.08
2023-02-28T16:31:08.672Z,3.47
2023-02-28T16:33:40.175Z,2.30
2023-02-28T16:36:20.755Z,2.40
2023-02-28T16:38:52.433Z,2.10
2023-02-28T16:41:28.161Z,3.88
2023-02-28T16:44:00.744Z,2.13
2023-02-28T16:46:35.775Z,2.40
2023-02-28T16:49:12.100Z,4.57
2023-02-28T16:51:43.565Z,3.28
2023-02-28T16:54:14.985Z,1.90
2023-02-28T16:56:48.818Z,3.15
2023-02-28T16:59:24.804Z,2.00
2023-02-28T17:01:57.080Z,2.83
2023-02-28T17:04:28.996Z,2.92
2023-02-28T17:07:00.470Z,2.28
2023-02-28T17:09:42.002Z,3.50
2023-02-28T17:12:14.676Z,2.88
2023-02-28T17:14:46.119Z,2.95
2023-02-28T17:17:22.591Z,2.33
2023-02-28T17:19:54.019Z,3.50
2023-02-28T17:22:25.472Z,2.80
2023-02-28T17:24:56.908Z,2.35
2023-02-28T17:27:28.493Z,2.83
2023-02-28T17:29:59.951Z,2.67
2023-02-28T17:32:31.395Z,3.83
2023-02-28T17:35:02.867Z,3.17
2023-02-28T17:37:34.540Z,3.83
2023-02-28T17:40:07.219Z,2.80
2023-02-28T17:42:38.677Z,4.13
2023-02-28T17:45:10.704Z,3.17
2023-02-28T17:47:46.583Z,4.32
2023-02-28T17:50:21.575Z,4.70
2023-02-28T17:52:53.019Z,3.05
2023-02-28T17:55:24.509Z,3.78
2023-02-28T17:57:55.989Z,3.47
2023-02-28T18:00:27.727Z,3.28
2023-02-28T18:02:59.207Z,3.13
2023-02-28T18:05:31.741Z,3.03
2023-02-28T18:08:03.882Z,3.38
2023-02-28T18:10:35.381Z,4.07
2023-02-28T18:13:06.867Z,2.72
2023-02-28T18:15:39.808Z,2.60
2023-02-28T18:18:11.743Z,2.78
2023-02-28T18:20:43.540Z,4.15
2023-02-28T18:23:15.161Z,4.05
2023-02-28T18:25:46.582Z,3.42
2023-02-28T18:28:18.156Z,3.10
2023-02-28T18:30:49.556Z,4.15
2023-02-28T18:33:20.981Z,3.53
2023-02-28T18:35:56.319Z,4.65
2023-02-28T18:38:27.901Z,4.18
2023-02-28T18:41:03.959Z,3.53
2023-02-28T18:43:37.450Z,3.50
2023-02-28T18:46:11.477Z,3.65
2023-02-28T18:48:43.642Z,3.47
2023-02-28T18:51:18.447Z,4.53
2023-02-28T18:53:50.478Z,3.63
2023-02-28T18:56:24.750Z,3.27
2023-02-28T18:58:56.164Z,4.03
2023-02-28T19:01:28.928Z,3.42
2023-02-28T19:04:01.670Z,3.72
2023-02-28T19:06:34.196Z,3.35
2023-02-28T19:09:06.276Z,3.53
2023-02-28T19:11:38.300Z,3.28
2023-02-28T19:14:09.804Z,4.35
2023-02-28T19:16:41.359Z,4.65
2023-02-28T19:19:12.812Z,3.75
2023-02-28T19:21:44.361Z,4.38
2023-02-28T19:24:15.785Z,3.77
2023-02-28T19:26:47.226Z,4.10
2023-02-28T19:29:18.653Z,5.17
2023-02-28T19:31:50.378Z,4.05
2023-02-28T19:34:21.897Z,3.78
2023-02-28T19:36:53.331Z,4.95
2023-02-28T19:39:24.767Z,5.30
2023-02-28T19:41:56.145Z,4.32
2023-02-28T19:44:27.664Z,5.78
2023-02-28T19:46:59.084Z,5.30
2023-02-28T19:49:30.576Z,4.88
2023-02-28T19:52:02.608Z,4.53
2023-02-28T19:54:34.060Z,3.90
2023-02-28T19:57:05.514Z,4.97
2023-02-28T19:59:39.728Z,4.90
2023-02-28T20:02:16.625Z,5.65
2023-02-28T20:04:49.446Z,4.57
2023-02-28T20:07:21.294Z,6.15
2023-02-28T20:09:52.818Z,5.27
2023-02-28T20:12:25.075Z,5.57
2023-02-28T20:14:56.582Z,6.20
2023-02-28T20:17:29.030Z,6.15
2023-02-28T20:20:00.469Z,5.78
2023-02-28T20:22:31.941Z,5.80
2023-02-28T20:25:04.251Z,5.28
2023-02-28T20:27:35.702Z,6.38
2023-02-28T20:30:08.077Z,5.63
2023-02-28T20:32:39.587Z,7.43
2023-02-28T20:35:11.253Z,7.07
2023-02-28T20:37:42.720Z,7.38
2023-02-28T20:40:14.506Z,6.30
2023-02-28T20:42:46.182Z,5.72
2023-02-28T20:45:17.598Z,6.53
2023-02-28T20:47:50.037Z,7.10
2023-02-28T20:50:21.473Z,6.63
2023-02-28T20:52:52.876Z,6.15
2023-02-28T20:55:24.352Z,5.97
2023-02-28T20:57:55.821Z,6.35
2023-02-28T21:00:27.293Z,6.15
2023-02-28T21:02:58.827Z,6.60
2023-02-28T21:05:30.313Z,6.70
2023-02-28T21:08:01.796Z,7.85
2023-02-28T21:10:33.315Z,7.25
2023-02-28T21:13:04.765Z,8.20
2023-02-28T21:15:39.158Z,6.23
2023-02-28T21:18:10.612Z,6.60
2023-02-28T21:20:42.130Z,10.30
2023-02-28T21:23:13.624Z,7.45
2023-02-28T21:25:45.066Z,7.40
2023-02-28T21:28:16.516Z,7.72
2023-02-28T21:30:48.081Z,8.00
2023-02-28T21:33:19.542Z,7.03
2023-02-28T21:35:51.037Z,7.22
2023-02-28T21:38:22.524Z,8.15
2023-02-28T21:40:53.965Z,7.23
2023-02-28T21:43:25.361Z,8.75
2023-02-28T21:45:56.833Z,9.95
2023-02-28T21:48:28.320Z,8.18
2023-02-28T21:51:07.559Z,7.15
2023-02-28T21:53:40.644Z,8.50
2023-02-28T21:56:18.236Z,7.87
2023-02-28T21:58:50.126Z,9.30
2023-02-28T22:01:22.807Z,8.85
2023-02-28T22:03:54.285Z,10.32
2023-02-28T22:06:28.895Z,9.07
2023-02-28T22:09:02.787Z,9.73
2023-02-28T22:11:35.482Z,9.05
2023-02-28T22:14:08.559Z,8.52
2023-02-28T22:16:51.482Z,8.50
2023-02-28T22:19:23.956Z,10.07
2023-02-28T22:21:55.406Z,8.63
2023-02-28T22:24:26.893Z,9.23
2023-02-28T22:26:58.350Z,8.80
2023-02-28T22:29:29.803Z,8.27
2023-02-28T22:32:01.379Z,8.70
2023-02-28T22:34:32.851Z,8.30
2023-02-28T22:37:04.251Z,11.35
2023-02-28T22:39:35.680Z,9.18
2023-02-28T22:42:07.132Z,8.70
2023-02-28T22:44:38.540Z,8.73
2023-02-28T22:47:10.031Z,8.32
2023-02-28T22:49:41.568Z,8.70
2023-02-28T22:52:12.951Z,8.73
2023-02-28T22:54:44.438Z,8.73
2023-02-28T22:57:15.872Z,8.52
2023-02-28T22:59:47.324Z,11.40
2023-02-28T23:02:18.802Z,9.70
2023-02-28T23:04:50.214Z,9.80
2023-02-28T23:07:21.681Z,8.93
2023-02-28T23:09:53.142Z,8.73
2023-02-28T23:12:24.588Z,9.85
2023-02-28T23:14:56.012Z,9.02
2023-02-28T23:17:27.485Z,9.20
2023-02-28T23:19:58.915Z,11.50
2023-02-28T23:22:30.356Z,9.20
2023-02-28T23:25:01.812Z,8.68
2023-02-28T23:27:33.295Z,11.02
2023-02-28T23:30:05.093Z,9.30
2023-02-28T23:32:38.590Z,9.30
2023-02-28T23:35:10.965Z,8.57
2023-02-28T23:37:42.454Z,9.95
2023-02-28T23:40:14.544Z,10.05
2023-02-28T23:42:46.001Z,9.70
2023-02-28T23:45:18.536Z,8.35
2023-02-28T23:47:50.018Z,11.45
2023-02-28T23:50:21.523Z,10.47
2023-02-28T23:52:53.113Z,10.52
2023-02-28T23:55:24.607Z,9.55
2023-02-28T23:57:56.096Z,9.55
